sensor_id;sensor_type;location;lat;lon;timestamp;P1;durP1;ratioP1;P2;durP2;ratioP2
18568;SDS011;14780;48.316;-1.050;2023-04-01T00:02:09;4.85;;;1.65;;
18568;SDS011;14780;48.316;-1.050;2023-04-01T00:04:54;3.10;;;1.83;;
18568;SDS011;14780;48.316;-1.050;2023-04-01T00:07:39;5.38;;;2.70;;
18568;SDS011;14780;48.316;-1.050;2023-04-01T00:10:24;4.32;;;2.03;;
18568;SDS011;14780;48.316;-1.050;2023-04-01T00:13:09;3.63;;;1.85;;
18568;SDS011;14780;48.316;-1.050;2023-04-01T00:15:54;3.88;;;2.13;;
18568;SDS011;14780;48.316;-1.050;2023-04-01T00:18:39;5.28;;;1.90;;
18568;SDS011;14780;48.316;-1.050;2023-04-01T00:21:23;2.83;;;1.60;;
18568;SDS011;14780;48.316;-1.050;2023-04-01T00:24:09;2.83;;;1.58;;
18568;SDS011;14780;48.316;-1.050;2023-04-01T00:26:54;3.47;;;1.73;;
18568;SDS011;14780;48.316;-1.050;2023-04-01T00:29:43;4.15;;;1.95;;
18568;SDS011;14780;48.316;-1.050;2023-04-01T00:32:29;5.28;;;1.77;;
18568;SDS011;14780;48.316;-1.050;2023-04-01T00:35:15;2.95;;;1.77;;
18568;SDS011;14780;48.316;-1.050;2023-04-01T00:38:00;2.35;;;1.48;;
18568;SDS011;14780;48.316;-1.050;2023-04-01T00:40:46;3.95;;;1.90;;
18568;SDS011;14780;48.316;-1.050;2023-04-01T00:43:31;6.25;;;2.08;;
18568;SDS011;14780;48.316;-1.050;2023-04-01T00:46:16;4.63;;;1.83;;
18568;SDS011;14780;48.316;-1.050;2023-04-01T00:49:01;3.60;;;1.90;;
18568;SDS011;14780;48.316;-1.050;2023-04-01T00:51:47;2.20;;;1.80;;
18568;SDS011;14780;48.316;-1.050;2023-04-01T00:54:35;3.95;;;1.80;;
18568;SDS011;14780;48.316;-1.050;2023-04-01T00:57:31;6.25;;;2.40;;
18568;SDS011;14780;48.316;-1.050;2023-04-01T01:00:20;3.25;;;1.85;;
18568;SDS011;14780;48.316;-1.050;2023-04-01T01:03:05;3.35;;;2.05;;
18568;SDS011;14780;48.316;-1.050;2023-04-01T01:09:12;3.95;;;2.08;;
18568;SDS011;14780;48.316;-1.050;2023-04-01T01:24:08;3.42;;;1.88;;
18568;SDS011;14780;48.316;-1.050;2023-04-01T01:27:06;5.65;;;1.90;;
18568;SDS011;14780;48.316;-1.050;2023-04-01T01:35:57;2.20;;;1.65;;
18568;SDS011;14780;48.316;-1.050;2023-04-01T01:38:45;3.05;;;1.50;;
18568;SDS011;14780;48.316;-1.050;2023-04-01T01:41:35;3.45;;;1.77;;
18568;SDS011;14780;48.316;-1.050;2023-04-01T01:44:22;2.50;;;1.52;;
18568;SDS011;14780;48.316;-1.050;2023-04-01T01:47:09;4.63;;;2.05;;
18568;SDS011;14780;48.316;-1.050;2023-04-01T01:49:55;3.97;;;2.38;;
18568;SDS011;14780;48.316;-1.050;2023-04-01T01:52:40;1.95;;;1.50;;
18568;SDS011;14780;48.316;-1.050;2023-04-01T02:00:59;3.00;;;1.70;;
18568;SDS011;14780;48.316;-1.050;2023-04-01T02:03:46;2.15;;;1.40;;
18568;SDS011;14780;48.316;-1.050;2023-04-01T02:06:34;3.80;;;1.75;;
18568;SDS011;14780;48.316;-1.050;2023-04-01T02:09:23;4.05;;;1.83;;
18568;SDS011;14780;48.316;-1.050;2023-04-01T02:12:09;5.55;;;2.10;;
18568;SDS011;14780;48.316;-1.050;2023-04-01T02:17:49;2.95;;;1.67;;
18568;SDS011;14780;48.316;-1.050;2023-04-01T02:20:36;2.53;;;1.65;;
18568;SDS011;14780;48.316;-1.050;2023-04-01T02:23:22;4.55;;;2.20;;
18568;SDS011;14780;48.316;-1.050;2023-04-01T02:26:07;3.97;;;1.52;;
18568;SDS011;14780;48.316;-1.050;2023-04-01T02:28:55;3.92;;;1.55;;
18568;SDS011;14780;48.316;-1.050;2023-04-01T02:31:42;3.33;;;1.70;;
18568;SDS011;14780;48.316;-1.050;2023-04-01T02:34:28;4.35;;;1.95;;
18568;SDS011;14780;48.316;-1.050;2023-04-01T02:37:13;6.20;;;1.80;;
18568;SDS011;14780;48.316;-1.050;2023-04-01T02:40:00;2.80;;;1.77;;
18568;SDS011;14780;48.316;-1.050;2023-04-01T02:42:46;4.35;;;2.15;;
18568;SDS011;14780;48.316;-1.050;2023-04-01T02:45:31;3.95;;;1.88;;
18568;SDS011;14780;48.316;-1.050;2023-04-01T02:48:15;2.17;;;1.55;;
18568;SDS011;14780;48.316;-1.050;2023-04-01T02:51:00;7.28;;;2.00;;
18568;SDS011;14780;48.316;-1.050;2023-04-01T02:53:45;2.85;;;1.55;;
18568;SDS011;14780;48.316;-1.050;2023-04-01T02:56:30;3.60;;;1.90;;
18568;SDS011;14780;48.316;-1.050;2023-04-01T02:59:15;3.35;;;1.70;;
18568;SDS011;14780;48.316;-1.050;2023-04-01T03:02:00;3.50;;;1.73;;
18568;SDS011;14780;48.316;-1.050;2023-04-01T03:04:44;2.55;;;1.50;;
18568;SDS011;14780;48.316;-1.050;2023-04-01T03:07:29;3.47;;;1.27;;
18568;SDS011;14780;48.316;-1.050;2023-04-01T03:10:13;3.33;;;1.52;;
18568;SDS011;14780;48.316;-1.050;2023-04-01T03:12:59;3.30;;;1.95;;
18568;SDS011;14780;48.316;-1.050;2023-04-01T03:15:43;1.95;;;1.38;;
18568;SDS011;14780;48.316;-1.050;2023-04-01T03:18:28;4.05;;;1.80;;
18568;SDS011;14780;48.316;-1.050;2023-04-01T03:21:17;3.22;;;1.42;;
18568;SDS011;14780;48.316;-1.050;2023-04-01T03:24:04;3.37;;;1.83;;
18568;SDS011;14780;48.316;-1.050;2023-04-01T03:26:49;4.82;;;1.95;;
18568;SDS011;14780;48.316;-1.050;2023-04-01T03:29:34;3.60;;;1.67;;
18568;SDS011;14780;48.316;-1.050;2023-04-01T03:32:19;3.80;;;1.60;;
18568;SDS011;14780;48.316;-1.050;2023-04-01T03:35:03;4.35;;;1.95;;
18568;SDS011;14780;48.316;-1.050;2023-04-01T03:37:52;2.78;;;1.98;;
18568;SDS011;14780;48.316;-1.050;2023-04-01T03:40:41;2.78;;;1.70;;
18568;SDS011;14780;48.316;-1.050;2023-04-01T03:43:26;4.78;;;2.17;;
18568;SDS011;14780;48.316;-1.050;2023-04-01T03:46:11;3.83;;;1.75;;
18568;SDS011;14780;48.316;-1.050;2023-04-01T03:49:01;3.55;;;1.65;;
18568;SDS011;14780;48.316;-1.050;2023-04-01T03:51:46;3.08;;;1.88;;
18568;SDS011;14780;48.316;-1.050;2023-04-01T03:54:30;3.28;;;1.50;;
18568;SDS011;14780;48.316;-1.050;2023-04-01T03:57:16;2.33;;;1.60;;
18568;SDS011;14780;48.316;-1.050;2023-04-01T04:00:00;4.25;;;1.70;;
18568;SDS011;14780;48.316;-1.050;2023-04-01T04:02:45;4.10;;;2.13;;
18568;SDS011;14780;48.316;-1.050;2023-04-01T04:05:30;3.75;;;1.80;;
18568;SDS011;14780;48.316;-1.050;2023-04-01T04:08:15;4.35;;;2.20;;
18568;SDS011;14780;48.316;-1.050;2023-04-01T04:11:00;5.18;;;1.80;;
18568;SDS011;14780;48.316;-1.050;2023-04-01T04:13:45;3.50;;;1.80;;
18568;SDS011;14780;48.316;-1.050;2023-04-01T04:16:31;2.90;;;1.80;;
18568;SDS011;14780;48.316;-1.050;2023-04-01T04:19:17;4.13;;;1.77;;
18568;SDS011;14780;48.316;-1.050;2023-04-01T04:22:02;4.93;;;2.17;;
18568;SDS011;14780;48.316;-1.050;2023-04-01T04:24:47;4.75;;;1.88;;
18568;SDS011;14780;48.316;-1.050;2023-04-01T04:27:31;3.00;;;1.70;;
18568;SDS011;14780;48.316;-1.050;2023-04-01T04:30:17;2.72;;;1.30;;
18568;SDS011;14780;48.316;-1.050;2023-04-01T04:33:01;3.13;;;1.85;;
18568;SDS011;14780;48.316;-1.050;2023-04-01T04:35:46;2.30;;;1.30;;
18568;SDS011;14780;48.316;-1.050;2023-04-01T04:38:30;3.88;;;1.70;;
18568;SDS011;14780;48.316;-1.050;2023-04-01T04:41:16;2.25;;;1.50;;
18568;SDS011;14780;48.316;-1.050;2023-04-01T04:44:02;3.67;;;1.75;;
18568;SDS011;14780;48.316;-1.050;2023-04-01T04:46:48;1.45;;;1.08;;
18568;SDS011;14780;48.316;-1.050;2023-04-01T04:49:32;3.03;;;1.45;;
18568;SDS011;14780;48.316;-1.050;2023-04-01T04:52:17;3.03;;;1.83;;
18568;SDS011;14780;48.316;-1.050;2023-04-01T04:55:02;2.72;;;1.60;;
18568;SDS011;14780;48.316;-1.050;2023-04-01T04:57:47;2.85;;;1.85;;
18568;SDS011;14780;48.316;-1.050;2023-04-01T05:00:31;2.83;;;1.45;;
18568;SDS011;14780;48.316;-1.050;2023-04-01T05:03:16;2.55;;;1.80;;
18568;SDS011;14780;48.316;-1.050;2023-04-01T05:06:00;2.72;;;1.52;;
18568;SDS011;14780;48.316;-1.050;2023-04-01T05:08:46;3.45;;;1.95;;
18568;SDS011;14780;48.316;-1.050;2023-04-01T05:11:31;5.47;;;1.83;;
18568;SDS011;14780;48.316;-1.050;2023-04-01T05:14:16;4.00;;;1.50;;
18568;SDS011;14780;48.316;-1.050;2023-04-01T05:17:01;3.00;;;1.63;;
18568;SDS011;14780;48.316;-1.050;2023-04-01T05:19:46;2.92;;;1.63;;
18568;SDS011;14780;48.316;-1.050;2023-04-01T05:22:30;4.70;;;1.67;;
18568;SDS011;14780;48.316;-1.050;2023-04-01T05:25:15;4.47;;;2.10;;
18568;SDS011;14780;48.316;-1.050;2023-04-01T05:28:00;3.38;;;1.63;;
18568;SDS011;14780;48.316;-1.050;2023-04-01T05:30:45;2.83;;;1.70;;
18568;SDS011;14780;48.316;-1.050;2023-04-01T05:33:30;2.67;;;1.75;;
18568;SDS011;14780;48.316;-1.050;2023-04-01T05:36:15;3.55;;;1.50;;
18568;SDS011;14780;48.316;-1.050;2023-04-01T05:39:00;3.78;;;1.65;;
18568;SDS011;14780;48.316;-1.050;2023-04-01T05:41:46;3.55;;;1.83;;
18568;SDS011;14780;48.316;-1.050;2023-04-01T05:44:31;2.13;;;1.45;;
18568;SDS011;14780;48.316;-1.050;2023-04-01T05:47:16;3.17;;;1.45;;
18568;SDS011;14780;48.316;-1.050;2023-04-01T05:50:00;3.20;;;1.70;;
18568;SDS011;14780;48.316;-1.050;2023-04-01T05:52:45;3.00;;;1.70;;
18568;SDS011;14780;48.316;-1.050;2023-04-01T05:55:30;3.85;;;1.67;;
18568;SDS011;14780;48.316;-1.050;2023-04-01T05:58:14;2.90;;;1.75;;
18568;SDS011;14780;48.316;-1.050;2023-04-01T06:01:03;3.55;;;1.60;;
18568;SDS011;14780;48.316;-1.050;2023-04-01T06:03:53;3.13;;;1.63;;
18568;SDS011;14780;48.316;-1.050;2023-04-01T06:06:38;3.63;;;1.80;;
18568;SDS011;14780;48.316;-1.050;2023-04-01T06:09:27;2.40;;;1.52;;
18568;SDS011;14780;48.316;-1.050;2023-04-01T06:12:17;2.47;;;1.70;;
18568;SDS011;14780;48.316;-1.050;2023-04-01T06:15:20;2.37;;;1.43;;
18568;SDS011;14780;48.316;-1.050;2023-04-01T06:39:50;5.57;;;1.88;;
18568;SDS011;14780;48.316;-1.050;2023-04-01T06:54:40;2.85;;;1.42;;
18568;SDS011;14780;48.316;-1.050;2023-04-01T06:57:34;5.20;;;1.90;;
18568;SDS011;14780;48.316;-1.050;2023-04-01T07:00:30;1.15;;;1.08;;
18568;SDS011;14780;48.316;-1.050;2023-04-01T07:06:35;2.20;;;1.27;;
18568;SDS011;14780;48.316;-1.050;2023-04-01T07:09:32;7.13;;;1.63;;
18568;SDS011;14780;48.316;-1.050;2023-04-01T07:15:32;2.37;;;1.40;;
18568;SDS011;14780;48.316;-1.050;2023-04-01T07:18:25;2.72;;;1.50;;
18568;SDS011;14780;48.316;-1.050;2023-04-01T07:21:29;3.25;;;1.90;;
18568;SDS011;14780;48.316;-1.050;2023-04-01T07:24:39;3.38;;;1.70;;
18568;SDS011;14780;48.316;-1.050;2023-04-01T07:27:27;3.47;;;1.52;;
18568;SDS011;14780;48.316;-1.050;2023-04-01T07:30:13;2.80;;;1.45;;
18568;SDS011;14780;48.316;-1.050;2023-04-01T07:36:01;4.13;;;1.88;;
18568;SDS011;14780;48.316;-1.050;2023-04-01T07:38:57;10.77;;;2.28;;
18568;SDS011;14780;48.316;-1.050;2023-04-01T07:44:38;9.48;;;2.08;;
18568;SDS011;14780;48.316;-1.050;2023-04-01T07:56:38;3.70;;;1.95;;
18568;SDS011;14780;48.316;-1.050;2023-04-01T07:59:45;4.15;;;1.80;;
18568;SDS011;14780;48.316;-1.050;2023-04-01T08:09:20;4.05;;;2.28;;
18568;SDS011;14780;48.316;-1.050;2023-04-01T08:15:49;4.30;;;2.05;;
18568;SDS011;14780;48.316;-1.050;2023-04-01T08:19:29;6.45;;;1.98;;
18568;SDS011;14780;48.316;-1.050;2023-04-01T08:22:44;3.67;;;1.80;;
18568;SDS011;14780;48.316;-1.050;2023-04-01T08:25:34;6.68;;;2.28;;
18568;SDS011;14780;48.316;-1.050;2023-04-01T08:28:36;6.50;;;1.70;;
18568;SDS011;14780;48.316;-1.050;2023-04-01T08:31:43;4.65;;;2.20;;
18568;SDS011;14780;48.316;-1.050;2023-04-01T08:34:39;3.67;;;1.88;;
18568;SDS011;14780;48.316;-1.050;2023-04-01T08:37:31;5.10;;;2.03;;
18568;SDS011;14780;48.316;-1.050;2023-04-01T08:43:42;4.07;;;1.75;;
18568;SDS011;14780;48.316;-1.050;2023-04-01T08:49:56;4.40;;;2.13;;
18568;SDS011;14780;48.316;-1.050;2023-04-01T08:52:58;3.80;;;1.77;;
18568;SDS011;14780;48.316;-1.050;2023-04-01T09:09:01;4.13;;;1.88;;
18568;SDS011;14780;48.316;-1.050;2023-04-01T09:30:03;2.40;;;1.58;;
18568;SDS011;14780;48.316;-1.050;2023-04-01T09:36:18;4.65;;;1.95;;
18568;SDS011;14780;48.316;-1.050;2023-04-01T10:16:09;2.35;;;1.48;;
18568;SDS011;14780;48.316;-1.050;2023-04-01T10:22:05;3.63;;;2.05;;
18568;SDS011;14780;48.316;-1.050;2023-04-01T10:25:17;4.68;;;2.10;;
18568;SDS011;14780;48.316;-1.050;2023-04-01T10:43:26;5.40;;;1.73;;
18568;SDS011;14780;48.316;-1.050;2023-04-01T10:46:40;4.65;;;1.85;;
18568;SDS011;14780;48.316;-1.050;2023-04-01T11:11:17;26.52;;;8.93;;
18568;SDS011;14780;48.316;-1.050;2023-04-01T11:21:06;21.00;;;7.13;;
18568;SDS011;14780;48.316;-1.050;2023-04-01T11:32:46;18.13;;;6.13;;
18568;SDS011;14780;48.316;-1.050;2023-04-01T11:35:55;13.13;;;6.03;;
18568;SDS011;14780;48.316;-1.050;2023-04-01T11:47:50;15.95;;;5.47;;
18568;SDS011;14780;48.316;-1.050;2023-04-01T11:54:06;9.80;;;4.78;;
18568;SDS011;14780;48.316;-1.050;2023-04-01T11:57:31;12.70;;;4.38;;
18568;SDS011;14780;48.316;-1.050;2023-04-01T12:12:42;9.27;;;3.90;;
18568;SDS011;14780;48.316;-1.050;2023-04-01T12:16:11;8.18;;;3.67;;
18568;SDS011;14780;48.316;-1.050;2023-04-01T12:22:23;11.07;;;4.07;;
18568;SDS011;14780;48.316;-1.050;2023-04-01T12:37:40;9.73;;;3.20;;
18568;SDS011;14780;48.316;-1.050;2023-04-01T12:40:54;11.68;;;3.55;;
18568;SDS011;14780;48.316;-1.050;2023-04-01T12:43:50;10.18;;;3.50;;
18568;SDS011;14780;48.316;-1.050;2023-04-01T12:46:56;5.03;;;2.63;;
18568;SDS011;14780;48.316;-1.050;2023-04-01T12:49:47;8.32;;;2.72;;
18568;SDS011;14780;48.316;-1.050;2023-04-01T12:56:07;7.00;;;2.85;;
18568;SDS011;14780;48.316;-1.050;2023-04-01T13:02:20;6.75;;;2.40;;
18568;SDS011;14780;48.316;-1.050;2023-04-01T13:05:37;5.65;;;2.95;;
18568;SDS011;14780;48.316;-1.050;2023-04-01T13:08:42;7.60;;;3.10;;
18568;SDS011;14780;48.316;-1.050;2023-04-01T13:21:13;7.75;;;2.75;;
18568;SDS011;14780;48.316;-1.050;2023-04-01T13:27:33;4.32;;;2.45;;
18568;SDS011;14780;48.316;-1.050;2023-04-01T13:30:26;8.38;;;3.30;;
18568;SDS011;14780;48.316;-1.050;2023-04-01T13:33:24;5.95;;;2.67;;
18568;SDS011;14780;48.316;-1.050;2023-04-01T13:39:24;5.57;;;2.58;;
18568;SDS011;14780;48.316;-1.050;2023-04-01T13:45:12;5.00;;;2.50;;
18568;SDS011;14780;48.316;-1.050;2023-04-01T13:57:50;13.88;;;3.22;;
18568;SDS011;14780;48.316;-1.050;2023-04-01T14:00:51;7.43;;;2.47;;
18568;SDS011;14780;48.316;-1.050;2023-04-01T14:03:53;5.10;;;2.40;;
18568;SDS011;14780;48.316;-1.050;2023-04-01T14:22:39;4.22;;;2.13;;
18568;SDS011;14780;48.316;-1.050;2023-04-01T14:28:57;6.63;;;2.50;;
18568;SDS011;14780;48.316;-1.050;2023-04-01T14:35:21;6.55;;;2.50;;
18568;SDS011;14780;48.316;-1.050;2023-04-01T14:38:42;4.75;;;1.88;;
18568;SDS011;14780;48.316;-1.050;2023-04-01T14:48:21;5.45;;;2.50;;
18568;SDS011;14780;48.316;-1.050;2023-04-01T14:57:05;5.53;;;2.10;;
18568;SDS011;14780;48.316;-1.050;2023-04-01T15:03:02;3.53;;;1.80;;
18568;SDS011;14780;48.316;-1.050;2023-04-01T15:15:10;5.68;;;2.45;;
18568;SDS011;14780;48.316;-1.050;2023-04-01T15:18:09;2.78;;;1.88;;
18568;SDS011;14780;48.316;-1.050;2023-04-01T15:21:13;6.40;;;2.03;;
18568;SDS011;14780;48.316;-1.050;2023-04-01T15:30:21;4.35;;;1.98;;
18568;SDS011;14780;48.316;-1.050;2023-04-01T15:33:22;5.20;;;2.47;;
18568;SDS011;14780;48.316;-1.050;2023-04-01T15:36:49;4.72;;;2.47;;
18568;SDS011;14780;48.316;-1.050;2023-04-01T15:39:56;3.47;;;1.80;;
18568;SDS011;14780;48.316;-1.050;2023-04-01T15:45:54;4.05;;;2.30;;
18568;SDS011;14780;48.316;-1.050;2023-04-01T15:49:03;4.40;;;2.00;;
18568;SDS011;14780;48.316;-1.050;2023-04-01T16:00:57;3.75;;;1.83;;
18568;SDS011;14780;48.316;-1.050;2023-04-01T16:07:37;4.68;;;2.08;;
18568;SDS011;14780;48.316;-1.050;2023-04-01T16:11:03;5.13;;;2.10;;
18568;SDS011;14780;48.316;-1.050;2023-04-01T16:29:32;5.07;;;2.38;;
18568;SDS011;14780;48.316;-1.050;2023-04-01T16:44:46;5.20;;;2.03;;
18568;SDS011;14780;48.316;-1.050;2023-04-01T16:47:45;3.45;;;1.80;;
18568;SDS011;14780;48.316;-1.050;2023-04-01T16:50:58;5.97;;;2.58;;
18568;SDS011;14780;48.316;-1.050;2023-04-01T16:53:48;5.22;;;2.00;;
18568;SDS011;14780;48.316;-1.050;2023-04-01T16:56:50;3.65;;;1.85;;
18568;SDS011;14780;48.316;-1.050;2023-04-01T16:59:44;5.47;;;2.17;;
18568;SDS011;14780;48.316;-1.050;2023-04-01T17:02:38;5.85;;;2.28;;
18568;SDS011;14780;48.316;-1.050;2023-04-01T17:05:44;4.43;;;2.08;;
18568;SDS011;14780;48.316;-1.050;2023-04-01T17:09:19;5.32;;;2.10;;
18568;SDS011;14780;48.316;-1.050;2023-04-01T17:12:30;6.28;;;2.28;;
18568;SDS011;14780;48.316;-1.050;2023-04-01T17:18:35;5.15;;;1.85;;
18568;SDS011;14780;48.316;-1.050;2023-04-01T17:27:24;3.28;;;1.80;;
18568;SDS011;14780;48.316;-1.050;2023-04-01T17:30:27;4.32;;;2.10;;
18568;SDS011;14780;48.316;-1.050;2023-04-01T17:37:49;4.28;;;1.80;;
18568;SDS011;14780;48.316;-1.050;2023-04-01T17:40:41;3.92;;;2.00;;
18568;SDS011;14780;48.316;-1.050;2023-04-01T17:43:39;3.97;;;1.67;;
18568;SDS011;14780;48.316;-1.050;2023-04-01T17:56:01;4.93;;;2.22;;
18568;SDS011;14780;48.316;-1.050;2023-04-01T17:58:29;3.90;;;1.60;;
18568;SDS011;14780;48.316;-1.050;2023-04-01T18:01:45;4.43;;;2.20;;
18568;SDS011;14780;48.316;-1.050;2023-04-01T18:11:08;4.13;;;2.25;;
18568;SDS011;14780;48.316;-1.050;2023-04-01T18:14:26;9.77;;;3.58;;
18568;SDS011;14780;48.316;-1.050;2023-04-01T18:17:18;13.23;;;4.43;;
18568;SDS011;14780;48.316;-1.050;2023-04-01T18:23:27;18.92;;;5.75;;
18568;SDS011;14780;48.316;-1.050;2023-04-01T18:26:29;16.70;;;6.07;;
18568;SDS011;14780;48.316;-1.050;2023-04-01T18:38:15;11.10;;;4.57;;
18568;SDS011;14780;48.316;-1.050;2023-04-01T18:45:09;11.60;;;4.32;;
18568;SDS011;14780;48.316;-1.050;2023-04-01T18:47:47;8.18;;;3.58;;
18568;SDS011;14780;48.316;-1.050;2023-04-01T18:51:17;8.25;;;3.70;;
18568;SDS011;14780;48.316;-1.050;2023-04-01T18:53:57;8.20;;;3.65;;
18568;SDS011;14780;48.316;-1.050;2023-04-01T18:56:46;8.77;;;3.90;;
18568;SDS011;14780;48.316;-1.050;2023-04-01T19:02:40;6.47;;;3.20;;
18568;SDS011;14780;48.316;-1.050;2023-04-01T19:05:36;12.85;;;3.97;;
18568;SDS011;14780;48.316;-1.050;2023-04-01T19:08:30;14.63;;;3.17;;
18568;SDS011;14780;48.316;-1.050;2023-04-01T19:14:25;10.67;;;3.90;;
18568;SDS011;14780;48.316;-1.050;2023-04-01T19:20:59;6.18;;;2.78;;
18568;SDS011;14780;48.316;-1.050;2023-04-01T19:42:32;9.40;;;2.38;;
18568;SDS011;14780;48.316;-1.050;2023-04-01T19:54:50;8.05;;;2.75;;
18568;SDS011;14780;48.316;-1.050;2023-04-01T19:57:47;7.45;;;2.20;;
18568;SDS011;14780;48.316;-1.050;2023-04-01T20:00:57;6.57;;;2.58;;
18568;SDS011;14780;48.316;-1.050;2023-04-01T20:03:57;10.27;;;3.15;;
18568;SDS011;14780;48.316;-1.050;2023-04-01T20:12:47;5.60;;;2.28;;
18568;SDS011;14780;48.316;-1.050;2023-04-01T20:15:39;6.70;;;2.50;;
18568;SDS011;14780;48.316;-1.050;2023-04-01T20:19:14;5.65;;;2.90;;
18568;SDS011;14780;48.316;-1.050;2023-04-01T20:21:43;5.20;;;2.08;;
18568;SDS011;14780;48.316;-1.050;2023-04-01T20:24:52;4.95;;;2.42;;
18568;SDS011;14780;48.316;-1.050;2023-04-01T20:27:37;5.80;;;2.63;;
18568;SDS011;14780;48.316;-1.050;2023-04-01T20:48:25;5.35;;;2.30;;
18568;SDS011;14780;48.316;-1.050;2023-04-01T20:51:22;3.78;;;2.00;;
18568;SDS011;14780;48.316;-1.050;2023-04-01T20:54:26;3.40;;;1.70;;
18568;SDS011;14780;48.316;-1.050;2023-04-01T21:13:16;3.08;;;1.55;;
18568;SDS011;14780;48.316;-1.050;2023-04-01T21:25:30;4.53;;;1.95;;
18568;SDS011;14780;48.316;-1.050;2023-04-01T21:28:40;3.28;;;1.98;;
18568;SDS011;14780;48.316;-1.050;2023-04-01T21:37:50;6.38;;;2.00;;
18568;SDS011;14780;48.316;-1.050;2023-04-01T21:50:26;3.05;;;1.88;;
18568;SDS011;14780;48.316;-1.050;2023-04-01T21:57:00;2.70;;;1.73;;
18568;SDS011;14780;48.316;-1.050;2023-04-01T22:00:14;3.83;;;2.00;;
18568;SDS011;14780;48.316;-1.050;2023-04-01T22:06:15;4.88;;;2.20;;
18568;SDS011;14780;48.316;-1.050;2023-04-01T22:09:11;3.33;;;1.80;;
18568;SDS011;14780;48.316;-1.050;2023-04-01T22:18:20;3.47;;;1.98;;
18568;SDS011;14780;48.316;-1.050;2023-04-01T22:21:38;3.97;;;2.17;;
18568;SDS011;14780;48.316;-1.050;2023-04-01T22:25:03;7.70;;;1.77;;
18568;SDS011;14780;48.316;-1.050;2023-04-01T22:27:58;3.45;;;1.95;;
18568;SDS011;14780;48.316;-1.050;2023-04-01T22:30:51;2.43;;;1.63;;
18568;SDS011;14780;48.316;-1.050;2023-04-01T22:33:53;6.90;;;2.08;;
18568;SDS011;14780;48.316;-1.050;2023-04-01T22:43:06;3.92;;;1.55;;
18568;SDS011;14780;48.316;-1.050;2023-04-01T22:49:02;2.75;;;1.33;;
18568;SDS011;14780;48.316;-1.050;2023-04-01T22:51:57;2.08;;;1.38;;
18568;SDS011;14780;48.316;-1.050;2023-04-01T22:58:09;3.30;;;1.50;;
18568;SDS011;14780;48.316;-1.050;2023-04-01T23:01:03;2.65;;;1.10;;
18568;SDS011;14780;48.316;-1.050;2023-04-01T23:03:52;1.73;;;1.15;;
18568;SDS011;14780;48.316;-1.050;2023-04-01T23:06:40;0.98;;;0.75;;
18568;SDS011;14780;48.316;-1.050;2023-04-01T23:09:36;3.53;;;1.30;;
18568;SDS011;14780;48.316;-1.050;2023-04-01T23:12:21;1.40;;;1.20;;
18568;SDS011;14780;48.316;-1.050;2023-04-01T23:15:11;4.15;;;1.20;;
18568;SDS011;14780;48.316;-1.050;2023-04-01T23:24:10;3.45;;;1.52;;
18568;SDS011;14780;48.316;-1.050;2023-04-01T23:27:06;1.52;;;1.20;;
18568;SDS011;14780;48.316;-1.050;2023-04-01T23:29:58;2.78;;;1.65;;
18568;SDS011;14780;48.316;-1.050;2023-04-01T23:32:42;2.42;;;1.27;;
18568;SDS011;14780;48.316;-1.050;2023-04-01T23:35:27;3.83;;;1.52;;
18568;SDS011;14780;48.316;-1.050;2023-04-01T23:38:11;1.60;;;1.30;;
18568;SDS011;14780;48.316;-1.050;2023-04-01T23:40:56;2.17;;;1.30;;
18568;SDS011;14780;48.316;-1.050;2023-04-01T23:43:41;0.93;;;0.88;;
18568;SDS011;14780;48.316;-1.050;2023-04-01T23:46:29;3.53;;;1.38;;
18568;SDS011;14780;48.316;-1.050;2023-04-01T23:49:28;2.35;;;1.33;;
18568;SDS011;14780;48.316;-1.050;2023-04-01T23:52:25;2.00;;;1.30;;
18568;SDS011;14780;48.316;-1.050;2023-04-01T23:55:14;1.83;;;1.25;;
